Time;durP1;ratioP1;P1;durP2;ratioP2;P2;SDS_P1;SDS_P2;PMS_P1;PMS_P2;Temp;Humidity;BMP_temperature;BMP_pressure;BME280_temperature;BME280_humidity;BME280_pressure;Samples;Min_cycle;Max_cycle;Signal;HPM_P1;HPM_P2
2023/01/09 00:01:41;;;;;;;9.17;5.43;;;6.90;99.90;;;;;;5097853;28;20445;-54
2023/01/09 00:04:08;;;;;;;12.27;6.40;;;6.80;99.90;;;;;;5106395;28;20488;-58
2023/01/09 00:06:41;;;;;;;10.40;6.13;;;6.80;99.90;;;;;;5098168;28;20453;-57
2023/01/09 00:09:09;;;;;;;10.97;8.00;;;6.80;99.90;;;;;;5118207;28;20801;-56
2023/01/09 00:11:36;;;;;;;10.47;6.60;;;6.80;99.90;;;;;;5110006;28;20481;-52
2023/01/09 00:14:03;;;;;;;10.23;6.87;;;6.80;99.90;;;;;;5107097;28;20482;-57
2023/01/09 00:16:30;;;;;;;9.43;6.40;;;6.70;99.90;;;;;;5112873;28;20467;-56
2023/01/09 00:18:59;;;;;;;13.33;7.83;;;6.70;99.90;;;;;;5113942;28;20456;-54
2023/01/09 00:21:26;;;;;;;16.00;7.90;;;6.70;99.90;;;;;;5116735;28;20465;-55
2023/01/09 00:23:55;;;;;;;12.77;7.90;;;8.60;99.90;;;;;;5117009;28;20457;-55
2023/01/09 00:26:22;;;;;;;10.80;6.80;;;8.40;99.90;;;;;;5114968;28;20527;-52
2023/01/09 00:28:50;;;;;;;12.13;6.73;;;7.90;99.90;;;;;;5115325;28;20481;-53
2023/01/09 00:31:18;;;;;;;12.17;6.70;;;7.60;99.90;;;;;;5115569;28;20464;-55
2023/01/09 00:33:48;;;;;;;11.43;6.50;;;7.40;99.90;;;;;;5116685;28;20461;-56
2023/01/09 00:36:15;;;;;;;11.93;7.40;;;7.20;99.90;;;;;;5113427;28;20814;-55
2023/01/09 00:38:42;;;;;;;11.07;6.30;;;7.10;99.90;;;;;;5116742;28;20499;-56
2023/01/09 00:41:16;;;;;;;10.17;6.60;;;7.00;99.90;;;;;;5112494;28;20511;-57
2023/01/09 00:43:46;;;;;;;11.23;6.80;;;6.90;99.90;;;;;;5116056;28;20457;-49
2023/01/09 00:46:14;;;;;;;13.83;7.30;;;6.80;99.90;;;;;;5116581;28;20542;-50
2023/01/09 00:48:43;;;;;;;11.03;7.07;;;6.80;99.90;;;;;;5116937;28;20510;-56
2023/01/09 00:51:10;;;;;;;13.33;7.53;;;6.70;99.90;;;;;;5115514;28;20461;-54
2023/01/09 00:53:41;;;;;;;9.33;6.47;;;6.70;99.90;;;;;;5106248;28;20484;-57
2023/01/09 00:56:14;;;;;;;11.60;7.17;;;6.60;99.90;;;;;;5114593;28;20464;-49
2023/01/09 00:58:41;;;;;;;13.30;7.37;;;6.60;99.90;;;;;;5117155;28;20425;-56
2023/01/09 01:01:08;;;;;;;14.87;8.23;;;6.60;99.90;;;;;;5117390;28;20457;-57
2023/01/09 01:03:35;;;;;;;13.33;8.17;;;6.60;99.90;;;;;;5117751;28;20487;-56
2023/01/09 01:08:47;;;;;;;10.37;6.27;;;6.60;99.90;;;;;;5114667;28;20502;-48
2023/01/09 01:11:16;;;;;;;10.20;7.20;;;6.60;99.90;;;;;;5119284;28;20472;-56
2023/01/09 01:13:43;;;;;;;10.93;7.07;;;6.60;99.90;;;;;;5115950;28;20464;-56
2023/01/09 01:16:11;;;;;;;9.83;6.57;;;6.60;99.90;;;;;;5116367;28;20481;-55
2023/01/09 01:18:39;;;;;;;12.40;7.40;;;6.60;99.90;;;;;;5109649;28;20541;-57
2023/01/09 01:21:07;;;;;;;15.73;8.03;;;6.60;99.90;;;;;;5115912;28;20450;-57
2023/01/09 01:23:34;;;;;;;11.30;6.80;;;6.60;99.90;;;;;;5116501;28;20481;-56
2023/01/09 01:26:05;;;;;;;10.50;8.30;;;6.60;99.90;;;;;;5115280;28;20481;-57
2023/01/09 01:28:33;;;;;;;9.67;7.30;;;6.60;99.90;;;;;;5115877;28;20485;-56
2023/01/09 01:31:00;;;;;;;16.63;8.60;;;6.60;99.90;;;;;;5116374;28;20424;-57
2023/01/09 01:33:29;;;;;;;11.43;7.97;;;6.60;99.90;;;;;;5115791;28;20457;-57
2023/01/09 01:36:06;;;;;;;13.53;8.57;;;6.50;99.90;;;;;;5116164;28;20449;-57
2023/01/09 01:38:34;;;;;;;10.90;6.30;;;6.50;99.90;;;;;;5110763;28;20422;-57
2023/01/09 01:41:02;;;;;;;10.90;6.67;;;6.50;99.90;;;;;;5102293;28;20489;-55
2023/01/09 01:43:43;;;;;;;12.80;7.47;;;6.50;99.90;;;;;;5098437;28;20475;-54
2023/01/09 01:46:12;;;;;;;12.27;8.13;;;6.50;99.90;;;;;;5115795;28;20461;-58
2023/01/09 01:48:39;;;;;;;15.33;8.60;;;6.40;99.90;;;;;;5115468;28;20499;-53
2023/01/09 01:51:09;;;;;;;16.37;7.70;;;6.40;99.90;;;;;;5114423;28;20457;-57
2023/01/09 01:53:40;;;;;;;9.83;6.83;;;6.50;99.90;;;;;;5115538;28;20445;-56
2023/01/09 01:56:14;;;;;;;13.83;8.27;;;6.50;99.90;;;;;;5095844;28;20414;-55
2023/01/09 01:58:44;;;;;;;12.47;6.67;;;6.40;99.90;;;;;;5114978;28;20783;-56
2023/01/09 02:01:13;;;;;;;14.53;8.03;;;6.40;99.90;;;;;;5116991;28;20441;-52
2023/01/09 02:03:41;;;;;;;12.20;8.33;;;6.40;99.90;;;;;;5115043;28;20438;-60
2023/01/09 02:06:11;;;;;;;9.53;7.23;;;6.30;99.90;;;;;;5103316;28;20485;-55
2023/01/09 02:08:38;;;;;;;12.53;7.77;;;6.30;99.90;;;;;;5114860;28;20483;-56
2023/01/09 02:11:06;;;;;;;14.20;8.03;;;6.30;99.90;;;;;;5112050;28;20438;-54
2023/01/09 02:13:39;;;;;;;12.30;6.83;;;6.30;99.90;;;;;;5094915;28;20450;-52
2023/01/09 02:16:19;;;;;;;14.27;7.00;;;6.20;99.90;;;;;;5110686;28;20442;-49
2023/01/09 02:18:50;;;;;;;12.60;7.23;;;6.20;99.90;;;;;;5095345;28;20462;-54
2023/01/09 02:21:24;;;;;;;11.87;8.23;;;6.20;99.90;;;;;;5103762;28;20458;-54
2023/01/09 02:24:30;;;;;;;14.80;8.20;;;6.20;99.90;;;;;;5116893;28;20472;-57
2023/01/09 02:27:07;;;;;;;18.43;8.20;;;6.20;99.90;;;;;;5116232;28;20544;-54
2023/01/09 02:30:08;;;;;;;11.50;7.57;;;6.20;99.90;;;;;;5116720;28;20468;-52
2023/01/09 02:32:45;;;;;;;8.97;6.60;;;6.20;99.90;;;;;;5117278;28;20409;-57
2023/01/09 02:35:23;;;;;;;11.80;7.40;;;6.20;99.90;;;;;;5111220;28;20457;-55
2023/01/09 02:37:57;;;;;;;13.20;8.13;;;6.20;99.90;;;;;;5105735;28;20453;-57
2023/01/09 02:40:33;;;;;;;14.37;8.03;;;6.10;99.90;;;;;;5114796;28;20463;-55
2023/01/09 02:43:01;;;;;;;11.40;7.57;;;6.20;99.90;;;;;;5115066;28;20456;-57
2023/01/09 02:45:31;;;;;;;15.67;8.90;;;6.20;99.90;;;;;;5114238;28;20525;-61
2023/01/09 02:47:59;;;;;;;11.67;7.37;;;6.20;99.90;;;;;;5115159;28;20481;-54
2023/01/09 02:50:34;;;;;;;15.97;9.10;;;6.20;99.90;;;;;;5115400;28;20454;-56
2023/01/09 02:53:33;;;;;;;16.07;8.90;;;6.20;99.90;;;;;;5114212;28;20515;-56
2023/01/09 02:56:15;;;;;;;17.10;8.97;;;6.20;99.90;;;;;;5115176;28;20468;-58
2023/01/09 02:59:00;;;;;;;14.27;8.90;;;6.20;99.90;;;;;;5115906;28;20432;-56
2023/01/09 03:01:37;;;;;;;13.67;8.87;;;6.20;99.90;;;;;;5114216;28;20464;-55
2023/01/09 03:04:11;;;;;;;16.07;8.63;;;6.20;99.90;;;;;;5113608;28;20481;-57
2023/01/09 03:06:44;;;;;;;13.00;8.53;;;6.20;99.90;;;;;;5113368;28;20465;-57
2023/01/09 03:09:18;;;;;;;13.20;8.00;;;6.20;99.90;;;;;;5115801;28;20473;-56
2023/01/09 03:11:51;;;;;;;15.17;9.53;;;6.20;99.90;;;;;;5115738;28;20490;-55
2023/01/09 03:14:21;;;;;;;12.50;9.57;;;6.20;99.90;;;;;;5113838;28;20422;-54
2023/01/09 03:16:56;;;;;;;11.63;7.87;;;6.10;99.90;;;;;;5114562;28;20453;-57
2023/01/09 03:19:29;;;;;;;16.60;8.00;;;6.20;99.90;;;;;;5115057;28;20448;-55
2023/01/09 03:21:57;;;;;;;13.00;9.07;;;6.20;99.90;;;;;;5095095;28;20414;-55
2023/01/09 03:24:24;;;;;;;14.80;9.33;;;6.20;99.90;;;;;;5115270;28;20493;-55
2023/01/09 03:26:53;;;;;;;14.60;8.97;;;6.20;99.90;;;;;;5116346;28;20535;-55
2023/01/09 03:29:19;;;;;;;19.60;9.20;;;6.30;99.90;;;;;;5097838;28;20545;-56
2023/01/09 03:31:46;;;;;;;13.50;8.20;;;6.20;99.90;;;;;;5111212;28;20472;-55
2023/01/09 03:34:13;;;;;;;13.53;8.03;;;6.30;99.90;;;;;;5117080;28;20429;-54
2023/01/09 03:36:42;;;;;;;13.93;8.30;;;6.40;99.90;;;;;;5115068;28;20453;-54
2023/01/09 03:39:11;;;;;;;11.10;7.67;;;6.40;99.90;;;;;;5114174;28;20468;-53
2023/01/09 03:41:40;;;;;;;17.20;8.63;;;6.50;99.90;;;;;;5113567;28;20531;-58
2023/01/09 03:44:07;;;;;;;12.13;7.47;;;6.50;99.90;;;;;;5114996;28;20468;-54
2023/01/09 03:46:33;;;;;;;12.47;7.80;;;6.50;99.90;;;;;;5097724;28;20502;-57
2023/01/09 03:49:00;;;;;;;17.20;9.53;;;6.60;99.90;;;;;;5109386;28;20568;-51
2023/01/09 03:51:27;;;;;;;17.57;8.67;;;6.60;99.90;;;;;;5114081;28;20530;-60
2023/01/09 03:53:55;;;;;;;14.57;9.33;;;6.70;99.90;;;;;;5114321;28;20433;-57
2023/01/09 03:56:24;;;;;;;12.33;7.87;;;6.70;99.90;;;;;;5114748;28;20465;-56
2023/01/09 03:58:52;;;;;;;14.30;8.93;;;6.80;99.90;;;;;;5114328;28;20476;-56
2023/01/09 04:01:19;;;;;;;14.30;8.40;;;6.70;99.90;;;;;;5113514;28;20473;-55
2023/01/09 04:03:46;;;;;;;15.97;9.97;;;6.80;99.90;;;;;;5113003;28;20488;-57
2023/01/09 04:06:13;;;;;;;13.20;8.43;;;6.80;99.90;;;;;;5112684;28;20445;-56
2023/01/09 04:08:40;;;;;;;14.10;8.43;;;6.80;99.90;;;;;;5113867;28;20484;-58
2023/01/09 04:11:08;;;;;;;12.17;8.47;;;6.80;99.90;;;;;;5113926;28;20488;-57
2023/01/09 04:13:35;;;;;;;15.70;9.80;;;6.80;99.90;;;;;;5113455;28;20473;-58
2023/01/09 04:16:02;;;;;;;12.30;6.87;;;6.80;99.90;;;;;;5114084;28;20799;-56
2023/01/09 04:18:29;;;;;;;12.20;8.13;;;6.80;99.90;;;;;;5109739;28;20422;-54
2023/01/09 04:20:55;;;;;;;12.20;7.80;;;6.90;99.90;;;;;;5113128;28;20460;-53
2023/01/09 04:23:22;;;;;;;14.83;9.80;;;6.90;99.90;;;;;;5113970;28;20740;-57
2023/01/09 04:25:49;;;;;;;15.20;8.80;;;6.90;99.90;;;;;;5114546;28;20508;-54
2023/01/09 04:28:19;;;;;;;16.07;9.70;;;6.90;99.90;;;;;;5113835;28;20477;-52
2023/01/09 04:30:45;;;;;;;14.33;8.53;;;6.90;99.90;;;;;;5109910;28;20462;-56
2023/01/09 04:33:12;;;;;;;13.53;9.63;;;6.90;99.90;;;;;;5093237;28;20430;-55
2023/01/09 04:35:39;;;;;;;12.50;8.27;;;6.90;99.90;;;;;;5095611;28;20458;-56
2023/01/09 04:38:06;;;;;;;11.77;8.20;;;6.90;99.90;;;;;;5112246;28;20457;-53
2023/01/09 04:40:33;;;;;;;14.60;8.77;;;6.90;99.90;;;;;;5108418;28;20461;-57
2023/01/09 04:43:00;;;;;;;12.70;8.20;;;6.90;99.90;;;;;;5103967;28;20468;-58
2023/01/09 04:45:28;;;;;;;13.63;8.50;;;6.90;99.90;;;;;;5102901;28;20440;-55
2023/01/09 04:47:57;;;;;;;17.87;8.67;;;6.90;99.90;;;;;;5108222;28;20461;-56
2023/01/09 04:50:23;;;;;;;11.93;7.40;;;6.90;99.90;;;;;;5115545;28;20437;-55
2023/01/09 04:52:50;;;;;;;20.27;11.17;;;6.90;99.90;;;;;;5113637;28;20677;-54
2023/01/09 04:55:17;;;;;;;18.43;9.23;;;6.90;99.90;;;;;;5116892;28;20464;-56
2023/01/09 04:57:47;;;;;;;16.10;9.60;;;6.90;99.90;;;;;;5116998;28;20472;-55
2023/01/09 05:00:15;;;;;;;14.67;9.33;;;6.90;99.90;;;;;;5111401;28;20453;-55
2023/01/09 05:02:43;;;;;;;13.60;8.90;;;6.90;99.90;;;;;;5107393;28;20474;-53
2023/01/09 05:05:11;;;;;;;14.27;8.83;;;6.90;99.90;;;;;;5106730;28;20473;-56
2023/01/09 05:07:40;;;;;;;17.60;10.40;;;6.90;99.90;;;;;;5106942;28;20461;-55
2023/01/09 05:10:09;;;;;;;16.27;8.77;;;6.90;99.90;;;;;;5106974;28;20504;-56
2023/01/09 05:12:36;;;;;;;16.77;9.70;;;6.90;99.90;;;;;;5104198;28;20426;-57
2023/01/09 05:15:04;;;;;;;13.83;9.50;;;6.90;99.90;;;;;;5106913;28;20477;-57
2023/01/09 05:17:30;;;;;;;11.77;7.83;;;6.90;99.90;;;;;;5102772;28;20446;-57
2023/01/09 05:19:59;;;;;;;13.57;8.83;;;6.90;99.90;;;;;;5106872;28;20465;-54
2023/01/09 05:22:26;;;;;;;12.70;7.60;;;6.90;99.90;;;;;;5106492;28;20469;-54
2023/01/09 05:24:55;;;;;;;12.90;7.40;;;6.80;99.90;;;;;;5104498;28;20430;-56
2023/01/09 05:27:21;;;;;;;18.73;8.40;;;6.80;99.90;;;;;;5093678;28;20520;-56
2023/01/09 05:29:48;;;;;;;13.30;9.00;;;6.80;99.90;;;;;;5111098;28;20489;-55
2023/01/09 05:32:15;;;;;;;14.40;9.13;;;6.80;99.90;;;;;;5109226;28;20465;-58
2023/01/09 05:34:42;;;;;;;13.10;8.70;;;6.70;99.90;;;;;;5104927;28;20462;-57
2023/01/09 05:37:10;;;;;;;13.97;8.50;;;6.70;99.90;;;;;;5106766;28;20549;-57
2023/01/09 05:39:40;;;;;;;14.07;9.03;;;6.70;99.90;;;;;;5104707;28;20477;-58
2023/01/09 05:42:07;;;;;;;13.80;8.83;;;6.80;99.90;;;;;;5113627;28;20576;-54
2023/01/09 05:44:34;;;;;;;14.07;8.40;;;6.80;99.90;;;;;;5096121;28;20458;-57
2023/01/09 05:47:01;;;;;;;14.87;9.20;;;6.80;99.90;;;;;;5106034;28;20484;-60
2023/01/09 05:49:27;;;;;;;18.40;9.50;;;6.80;99.90;;;;;;5116169;28;20477;-56
2023/01/09 05:51:54;;;;;;;17.40;8.03;;;6.70;99.90;;;;;;5116287;28;20481;-53
2023/01/09 05:54:23;;;;;;;15.73;9.13;;;6.80;99.90;;;;;;5117210;28;20453;-53
2023/01/09 05:56:51;;;;;;;18.57;11.50;;;6.80;99.90;;;;;;5117000;28;20454;-59
2023/01/09 05:59:18;;;;;;;14.60;8.87;;;6.80;99.90;;;;;;5117375;28;20449;-58
2023/01/09 06:01:45;;;;;;;17.80;8.80;;;6.80;99.90;;;;;;5117833;28;20457;-58
2023/01/09 06:04:12;;;;;;;19.03;9.03;;;6.70;99.90;;;;;;5118746;28;20469;-55
2023/01/09 06:06:39;;;;;;;14.53;9.90;;;6.70;99.90;;;;;;5118208;28;20485;-58
2023/01/09 06:09:09;;;;;;;12.90;8.27;;;6.60;99.90;;;;;;5118484;28;20461;-54
2023/01/09 06:11:38;;;;;;;14.33;9.53;;;6.60;99.90;;;;;;5101240;28;20481;-54
2023/01/09 06:14:05;;;;;;;16.27;9.77;;;6.60;99.90;;;;;;5096610;28;20429;-60
2023/01/09 06:16:32;;;;;;;16.17;9.83;;;6.60;99.90;;;;;;5112371;28;20464;-57
2023/01/09 06:19:05;;;;;;;17.20;10.60;;;6.60;99.90;;;;;;5115825;28;20465;-53
2023/01/09 06:21:31;;;;;;;16.27;11.13;;;6.60;99.90;;;;;;5100583;28;20458;-57
2023/01/09 06:23:59;;;;;;;18.20;9.80;;;6.60;99.90;;;;;;5095428;28;20450;-55
2023/01/09 06:26:26;;;;;;;16.30;9.13;;;6.60;99.90;;;;;;5096284;28;20442;-54
2023/01/09 06:28:55;;;;;;;13.93;8.83;;;6.60;99.90;;;;;;5115916;28;20472;-57
2023/01/09 06:31:22;;;;;;;16.50;10.10;;;6.70;99.90;;;;;;5115249;28;20560;-57
2023/01/09 06:33:49;;;;;;;18.73;9.80;;;6.70;99.90;;;;;;5115167;28;20425;-57
2023/01/09 06:36:16;;;;;;;20.57;11.33;;;6.70;99.90;;;;;;5103619;28;20466;-56
2023/01/09 06:38:46;;;;;;;21.33;12.33;;;6.70;99.90;;;;;;5097193;28;20427;-56
2023/01/09 06:41:13;;;;;;;18.40;10.90;;;6.70;99.90;;;;;;5115688;28;20430;-58
2023/01/09 06:43:40;;;;;;;16.50;9.60;;;6.70;99.90;;;;;;5113762;28;20502;-56
2023/01/09 06:46:08;;;;;;;14.30;9.90;;;6.70;99.90;;;;;;5116185;28;20442;-56
2023/01/09 06:48:35;;;;;;;17.33;9.57;;;6.70;99.90;;;;;;5115405;28;20449;-54
2023/01/09 06:51:02;;;;;;;21.27;11.77;;;6.70;99.90;;;;;;5099857;28;20462;-58
2023/01/09 06:53:29;;;;;;;16.60;10.30;;;6.70;99.90;;;;;;5115316;28;20449;-58
2023/01/09 06:55:56;;;;;;;17.23;9.73;;;6.70;99.90;;;;;;5115280;28;20488;-53
2023/01/09 06:58:23;;;;;;;20.13;10.80;;;6.70;99.90;;;;;;5114607;28;20449;-58
2023/01/09 07:00:50;;;;;;;17.73;8.53;;;6.70;99.90;;;;;;5115303;28;20465;-58
2023/01/09 07:03:20;;;;;;;16.83;10.43;;;6.70;99.90;;;;;;5115061;28;20458;-57
2023/01/09 07:05:49;;;;;;;15.37;9.70;;;6.80;99.90;;;;;;5109436;28;20450;-56
2023/01/09 07:08:15;;;;;;;16.43;10.27;;;6.70;99.90;;;;;;5113834;28;20481;-54
2023/01/09 07:10:44;;;;;;;19.97;10.27;;;6.70;99.90;;;;;;5114706;28;20500;-56
2023/01/09 07:13:11;;;;;;;15.50;9.43;;;6.70;99.90;;;;;;5114937;28;20456;-53
2023/01/09 07:15:38;;;;;;;22.17;10.80;;;6.70;99.90;;;;;;5114043;28;20457;-58
2023/01/09 07:18:05;;;;;;;17.07;10.63;;;6.70;99.90;;;;;;5114834;28;20445;-54
2023/01/09 07:20:34;;;;;;;15.50;9.63;;;6.70;99.90;;;;;;5095711;28;20469;-53
2023/01/09 07:23:00;;;;;;;14.37;8.33;;;6.80;99.90;;;;;;5111832;28;20461;-56
2023/01/09 07:25:29;;;;;;;18.27;9.20;;;6.80;99.90;;;;;;5108792;28;20454;-56
2023/01/09 07:27:59;;;;;;;19.67;10.10;;;6.80;99.90;;;;;;5114090;28;20445;-53
2023/01/09 07:30:28;;;;;;;19.20;9.67;;;6.80;99.90;;;;;;5112023;28;20505;-57
2023/01/09 07:32:58;;;;;;;21.83;9.90;;;6.80;99.90;;;;;;5114232;28;20488;-56
2023/01/09 07:35:25;;;;;;;16.90;10.60;;;6.80;99.90;;;;;;5114072;28;20528;-55
2023/01/09 07:37:54;;;;;;;18.20;9.83;;;6.80;99.90;;;;;;5115097;28;20421;-56
2023/01/09 07:40:21;;;;;;;20.50;10.57;;;6.80;99.90;;;;;;5111619;28;20489;-55
2023/01/09 07:42:48;;;;;;;18.30;10.93;;;6.80;99.90;;;;;;5114450;28;20450;-56
2023/01/09 07:45:15;;;;;;;18.43;10.80;;;6.90;99.90;;;;;;5113366;28;20469;-55
2023/01/09 07:47:43;;;;;;;17.60;9.53;;;6.90;99.90;;;;;;5112989;28;20457;-58
2023/01/09 07:50:10;;;;;;;22.00;10.27;;;6.80;99.90;;;;;;5113882;28;20462;-57
2023/01/09 07:52:37;;;;;;;14.73;10.27;;;6.90;99.90;;;;;;5113895;28;20462;-57
2023/01/09 07:55:07;;;;;;;17.00;10.30;;;6.90;99.90;;;;;;5114083;28;20458;-56
2023/01/09 07:57:34;;;;;;;22.33;10.70;;;7.30;99.90;;;;;;5114440;28;20586;-59
2023/01/09 08:00:02;;;;;;;25.57;12.17;;;8.40;99.90;;;;;;5114709;28;20483;-53
2023/01/09 08:02:29;;;;;;;28.83;12.53;;;9.00;99.90;;;;;;5115048;28;20453;-56
2023/01/09 08:04:56;;;;;;;16.20;10.37;;;9.60;99.90;;;;;;5115250;28;20484;-57
2023/01/09 08:07:23;;;;;;;17.50;9.80;;;10.00;99.90;;;;;;5108639;28;20438;-59
2023/01/09 08:09:52;;;;;;;18.63;8.60;;;10.10;99.90;;;;;;5094170;28;20462;-59
2023/01/09 08:12:21;;;;;;;19.10;9.10;;;9.90;99.90;;;;;;5111388;28;20449;-59
2023/01/09 08:14:48;;;;;;;30.03;9.70;;;10.20;99.90;;;;;;5108963;28;20457;-54
2023/01/09 08:17:14;;;;;;;12.10;8.43;;;10.00;99.90;;;;;;5099319;28;20526;-61
2023/01/09 08:19:42;;;;;;;13.67;7.67;;;9.80;99.90;;;;;;5111093;28;20449;-58
2023/01/09 08:22:09;;;;;;;13.90;8.23;;;9.90;99.90;;;;;;5114680;28;20448;-56
2023/01/09 08:24:36;;;;;;;17.10;8.67;;;10.10;99.90;;;;;;5112088;28;20930;-58
2023/01/09 08:27:03;;;;;;;16.40;7.33;;;9.80;99.90;;;;;;5115816;28;20754;-63
2023/01/09 08:29:32;;;;;;;13.60;8.70;;;9.40;99.90;;;;;;5105955;28;20482;-57
2023/01/09 08:31:59;;;;;;;14.23;8.20;;;9.00;99.90;;;;;;5109153;28;20437;-55
2023/01/09 08:34:26;;;;;;;13.30;7.70;;;8.60;99.90;;;;;;5114838;28;20447;-58
2023/01/09 08:36:57;;;;;;;13.40;8.27;;;8.40;99.90;;;;;;5098205;28;20484;-56
2023/01/09 08:39:24;;;;;;;13.30;9.00;;;8.20;99.90;;;;;;5097661;28;20437;-60
2023/01/09 08:47:24;;;;;;;16.43;9.67;;;7.70;99.90;;;;;;5097774;28;20461;-58
2023/01/09 08:49:51;;;;;;;15.53;8.50;;;7.60;99.90;;;;;;5100252;28;20474;-61
2023/01/09 08:52:18;;;;;;;21.57;9.20;;;7.60;99.90;;;;;;5092445;28;20455;-59
2023/01/09 08:54:45;;;;;;;13.50;10.00;;;7.50;99.90;;;;;;5103718;28;20446;-60
2023/01/09 08:57:12;;;;;;;14.47;8.73;;;7.50;99.90;;;;;;5114132;28;20438;-58
2023/01/09 08:59:43;;;;;;;14.70;8.80;;;7.50;99.90;;;;;;5103329;28;20492;-61
2023/01/09 09:02:10;;;;;;;16.13;8.70;;;7.60;99.90;;;;;;5092089;28;20489;-63
2023/01/09 09:04:37;;;;;;;15.67;8.03;;;7.50;99.90;;;;;;5108621;28;20438;-58
2023/01/09 09:07:04;;;;;;;19.70;9.07;;;7.50;99.90;;;;;;5106917;28;20442;-58
2023/01/09 09:09:34;;;;;;;19.87;9.40;;;7.40;99.90;;;;;;5103280;28;20453;-57
2023/01/09 09:12:01;;;;;;;18.07;9.53;;;7.40;99.90;;;;;;5107925;28;20506;-54
2023/01/09 09:17:14;;;;;;;13.20;8.53;;;7.40;99.90;;;;;;5105705;28;20471;-56
2023/01/09 09:19:41;;;;;;;19.30;9.93;;;7.40;99.90;;;;;;5115036;28;20788;-59
2023/01/09 09:22:10;;;;;;;10.77;7.97;;;7.40;99.90;;;;;;5096678;28;20454;-54
2023/01/09 09:24:37;;;;;;;16.67;8.47;;;7.40;99.90;;;;;;5096530;28;20446;-59
2023/01/09 09:27:04;;;;;;;12.30;8.40;;;7.40;99.90;;;;;;5096828;28;20470;-58
2023/01/09 09:29:36;;;;;;;13.97;8.93;;;7.30;99.90;;;;;;5092131;28;20446;-56
2023/01/09 09:32:04;;;;;;;13.03;8.43;;;7.40;99.90;;;;;;5102309;28;20464;-59
2023/01/09 09:34:32;;;;;;;15.23;9.07;;;7.40;99.90;;;;;;5107917;28;20449;-59
2023/01/09 09:36:59;;;;;;;14.87;9.27;;;7.40;99.90;;;;;;5109594;28;20437;-62
2023/01/09 09:39:26;;;;;;;11.47;8.63;;;7.40;99.90;;;;;;5099068;28;20581;-59
2023/01/09 09:45:32;;;;;;;20.43;9.40;;;7.50;99.90;;;;;;5043160;28;20443;-59
2023/01/09 09:48:07;;;;;;;15.43;8.60;;;7.50;99.90;;;;;;5097503;28;20536;-56
2023/01/09 09:51:19;;;;;;;15.97;8.20;;;7.50;99.90;;;;;;5110177;28;20464;-58
2023/01/09 09:53:58;;;;;;;15.47;9.10;;;7.60;99.90;;;;;;5101847;28;20470;-59
2023/01/09 09:56:27;;;;;;;11.87;7.93;;;7.70;99.90;;;;;;5104758;28;20425;-56
2023/01/09 09:58:59;;;;;;;15.83;8.77;;;7.70;99.90;;;;;;5111474;28;20481;-60
2023/01/09 10:01:33;;;;;;;16.97;9.10;;;7.80;99.90;;;;;;5103249;28;20426;-59
2023/01/09 10:04:04;;;;;;;16.37;8.00;;;7.90;99.90;;;;;;5106724;28;20422;-55
2023/01/09 10:06:37;;;;;;;14.23;8.40;;;7.90;99.90;;;;;;5105088;28;20443;-58
2023/01/09 10:09:15;;;;;;;16.03;8.67;;;7.90;99.90;;;;;;5103844;28;20505;-60
2023/01/09 10:11:47;;;;;;;17.20;8.90;;;7.90;99.90;;;;;;5103162;28;20470;-56
2023/01/09 10:14:15;;;;;;;17.03;8.30;;;8.00;99.90;;;;;;5101973;28;20539;-57
2023/01/09 10:17:03;;;;;;;10.40;7.40;;;8.30;99.90;;;;;;5104654;28;20450;-59
2023/01/09 10:19:44;;;;;;;13.93;7.77;;;8.30;99.90;;;;;;5104005;28;20438;-57
2023/01/09 10:22:25;;;;;;;10.70;6.07;;;8.40;99.90;;;;;;5106281;28;20446;-51
2023/01/09 10:25:03;;;;;;;16.00;7.70;;;8.40;99.90;;;;;;5106339;28;20461;-54
2023/01/09 10:27:43;;;;;;;12.10;6.80;;;8.40;99.90;;;;;;5106587;28;20486;-59
2023/01/09 10:30:26;;;;;;;9.43;6.40;;;8.40;99.90;;;;;;5103300;28;20473;-53
2023/01/09 10:33:04;;;;;;;11.27;6.13;;;8.40;99.90;;;;;;5105576;28;20505;-57
2023/01/09 10:35:54;;;;;;;11.77;6.40;;;8.40;99.90;;;;;;5093583;28;20471;-59
2023/01/09 10:38:29;;;;;;;11.60;7.60;;;8.40;99.90;;;;;;5096094;28;20423;-57
2023/01/09 10:41:02;;;;;;;10.53;6.23;;;8.40;99.90;;;;;;5102244;28;20464;-59
2023/01/09 10:43:35;;;;;;;8.83;4.77;;;8.40;99.90;;;;;;5116328;28;20442;-55
2023/01/09 10:46:10;;;;;;;6.67;5.17;;;8.40;99.90;;;;;;5115423;28;20495;-55
2023/01/09 10:48:40;;;;;;;10.00;5.50;;;8.40;99.90;;;;;;5115981;28;20482;-64
2023/01/09 10:51:20;;;;;;;9.70;6.30;;;8.40;99.90;;;;;;5115682;28;20533;-64
2023/01/09 10:53:51;;;;;;;5.07;4.17;;;8.40;99.90;;;;;;5115432;28;20422;-60
2023/01/09 10:56:23;;;;;;;12.30;4.50;;;8.40;99.90;;;;;;5088204;28;20415;-58
2023/01/09 10:58:55;;;;;;;14.40;5.93;;;8.40;99.90;;;;;;5101743;28;20466;-55
2023/01/09 11:01:25;;;;;;;11.60;6.27;;;8.40;99.90;;;;;;5108298;28;20460;-57
2023/01/09 11:03:52;;;;;;;9.80;5.53;;;8.50;99.90;;;;;;5106330;28;20465;-57
2023/01/09 11:06:25;;;;;;;8.90;5.40;;;8.50;99.90;;;;;;5107751;28;20442;-57
2023/01/09 11:08:56;;;;;;;7.40;5.30;;;8.40;99.90;;;;;;5103434;28;20441;-57
2023/01/09 11:11:34;;;;;;;9.00;6.10;;;8.50;99.90;;;;;;5104818;28;20495;-60
2023/01/09 11:14:07;;;;;;;9.07;5.33;;;8.50;99.90;;;;;;5106908;28;20453;-58
2023/01/09 11:16:37;;;;;;;10.00;4.90;;;8.50;99.90;;;;;;5094509;28;20489;-59
2023/01/09 11:19:05;;;;;;;6.20;4.30;;;8.50;99.90;;;;;;5102625;28;20450;-54
2023/01/09 11:21:34;;;;;;;7.00;4.80;;;8.50;99.90;;;;;;5108626;28;20442;-56
2023/01/09 11:24:29;;;;;;;9.30;5.17;;;8.50;99.90;;;;;;5114816;28;20489;-59
2023/01/09 11:27:30;;;;;;;6.27;4.00;;;8.50;99.90;;;;;;5093889;28;20427;-59
2023/01/09 11:30:22;;;;;;;5.33;4.03;;;8.50;99.90;;;;;;5108258;28;20468;-58
2023/01/09 11:32:49;;;;;;;6.47;4.40;;;8.50;99.90;;;;;;5107742;28;20460;-61
2023/01/09 11:35:29;;;;;;;6.73;4.10;;;8.40;99.90;;;;;;5106353;28;20495;-60
2023/01/09 11:38:19;;;;;;;10.50;4.17;;;8.40;99.90;;;;;;5094685;28;20446;-58
2023/01/09 11:40:50;;;;;;;4.57;4.17;;;8.40;99.90;;;;;;5088827;28;20545;-56
2023/01/09 11:43:21;;;;;;;4.60;3.30;;;8.50;99.90;;;;;;5093971;28;20426;-55
2023/01/09 11:45:52;;;;;;;7.00;2.90;;;8.50;99.90;;;;;;5093783;28;20511;-57
2023/01/09 11:48:34;;;;;;;4.20;2.80;;;8.50;99.90;;;;;;5093867;28;20465;-58
2023/01/09 11:51:04;;;;;;;5.33;3.03;;;8.40;99.90;;;;;;5086802;28;20459;-59
2023/01/09 11:53:55;;;;;;;5.03;3.20;;;8.50;99.90;;;;;;5094550;28;20453;-58
2023/01/09 11:56:24;;;;;;;10.53;3.10;;;8.50;99.90;;;;;;5087447;28;20415;-57
2023/01/09 11:58:51;;;;;;;5.10;3.83;;;8.50;99.90;;;;;;5094434;28;20486;-53
2023/01/09 12:01:43;;;;;;;4.87;3.23;;;8.40;99.90;;;;;;5094292;28;20418;-59
2023/01/09 12:04:20;;;;;;;4.60;3.10;;;8.40;99.90;;;;;;5094439;28;20434;-57
2023/01/09 12:06:59;;;;;;;5.40;3.00;;;8.40;99.90;;;;;;5109503;28;20498;-57
2023/01/09 12:09:35;;;;;;;6.10;3.00;;;8.50;99.90;;;;;;5114937;28;20437;-59
2023/01/09 12:12:14;;;;;;;3.87;2.90;;;8.50;99.90;;;;;;5114500;28;20489;-59
2023/01/09 12:14:52;;;;;;;3.23;2.30;;;8.60;99.90;;;;;;5114870;28;20425;-55
2023/01/09 12:17:45;;;;;;;3.57;2.77;;;8.60;99.90;;;;;;5114500;28;20425;-55
2023/01/09 12:20:33;;;;;;;7.00;2.93;;;8.60;99.90;;;;;;5114650;28;20429;-55
2023/01/09 12:23:14;;;;;;;4.10;1.87;;;8.60;99.90;;;;;;5105290;28;20478;-60
2023/01/09 12:25:50;;;;;;;2.43;2.20;;;8.60;99.90;;;;;;5114419;28;20428;-59
2023/01/09 12:28:52;;;;;;;2.93;2.53;;;8.60;99.90;;;;;;5114027;28;20455;-55
2023/01/09 12:31:35;;;;;;;5.67;2.13;;;8.60;99.90;;;;;;5108000;28;20510;-57
2023/01/09 12:34:15;;;;;;;2.73;2.33;;;8.60;99.90;;;;;;5114610;28;20441;-57
2023/01/09 12:36:57;;;;;;;4.60;1.90;;;8.60;99.90;;;;;;5115044;28;20480;-55
2023/01/09 12:39:35;;;;;;;1.90;1.70;;;8.60;99.90;;;;;;5114550;28;20445;-57
2023/01/09 12:42:24;;;;;;;4.43;2.63;;;8.60;99.90;;;;;;5114912;28;20421;-58
2023/01/09 12:45:11;;;;;;;4.03;2.23;;;8.60;99.90;;;;;;5114476;28;20414;-55
2023/01/09 12:47:51;;;;;;;4.03;2.30;;;8.70;99.90;;;;;;5114728;28;20453;-60
2023/01/09 12:50:39;;;;;;;4.00;2.33;;;8.70;99.90;;;;;;5114918;28;20462;-57
2023/01/09 12:53:17;;;;;;;3.67;1.90;;;8.60;99.90;;;;;;5114679;28;20929;-58
2023/01/09 12:55:51;;;;;;;5.63;3.07;;;8.70;99.90;;;;;;5114934;28;20465;-56
2023/01/09 12:58:31;;;;;;;5.30;2.47;;;8.60;99.90;;;;;;5114699;28;20452;-59
2023/01/09 13:01:02;;;;;;;4.47;2.83;;;8.60;99.90;;;;;;5115257;28;20449;-59
2023/01/09 13:03:36;;;;;;;3.40;2.17;;;8.60;99.90;;;;;;5115081;28;20422;-56
2023/01/09 13:06:06;;;;;;;8.37;2.57;;;8.70;99.90;;;;;;5107619;28;20426;-57
2023/01/09 13:08:37;;;;;;;6.37;2.43;;;8.70;99.90;;;;;;5117034;28;20556;-62
2023/01/09 13:11:09;;;;;;;3.13;2.80;;;8.70;99.90;;;;;;5117852;28;20461;-57
2023/01/09 13:13:44;;;;;;;4.50;2.20;;;8.70;99.90;;;;;;5098780;28;20738;-58
2023/01/09 13:16:17;;;;;;;2.03;1.83;;;8.70;99.90;;;;;;5091820;28;20422;-56
2023/01/09 13:18:48;;;;;;;4.93;2.17;;;8.80;99.90;;;;;;5097876;28;20450;-57
2023/01/09 13:21:15;;;;;;;5.03;2.20;;;8.80;99.90;;;;;;5097418;28;20454;-55
2023/01/09 13:23:48;;;;;;;3.53;2.13;;;8.80;99.90;;;;;;5097485;28;20548;-57